Kezdőlap
METAR-TAF:

METAR-TAF

Repülőterek :

Sanghaj-Putungi nemzetközi repülőtér

Sanghaj-Pudong, Kína

földrajzi szélesség: 31-07N, földrajzi hosszúság: 121-46E, magasság: 4 m

Jelenlegi meteorológiai megfigyelések

A jelentés 15 perccel ezelõtt készült, 17:00 UTC
Délkeleti szél 12 kt
Hőmérséklet 28°C
Páratartalom 89%
Légköri nyomás 1003 hPa
Látótávolság 10 km, vagy több
Szakadozott felhőzet 3300 lábon

METAR: ZSPD 171700Z 13006MPS 9999 BKN033 28/26 Q1003 NOSIG

Idő: 01:15 (17:15 UTC)

Előrejelzés

A jelentés 7 órával és 59 perccel ezelõtt készült, 09:16 UTC
Az előrejelzés 17-én 12 óra UTC és 18-én 12 óra UTC között érvényes
Délkeleti szél 17 kt
Látótávolság: 6000 m
Szakadozott felhőzet 1300 lábon

TAF: ZSPD 170916Z 1712/1812 14009MPS 6000 BKN013 TX30/1806Z TN25/1721Z

Meteorológiai megfigyelések és előrejelzések több, mint 4000 repülőtéren (METAR és TAF jelentéseket).

A térképen piros és sárga pontok jelzik az elérhető meteorológiai állomásokat.

Mozgassa az egeret a pont fölött, hogy megjelenjen az állomás neve.

Azután kattintson az időjárási megfigyelések és előrejelzések megtekintéséhez.

A térkép megváltoztatása: kattintson a fekete keresztel jelölt zöld gombra ráközelítéshez, a vonallal jelölt zöld gombra távolításhoz, vagy a zöld nyilakra a szomszédos térképek eléréséhez.


METAR-TAF: